sensor_id;sensor_type;location;lat;lon;timestamp;temperature;humidity
19449;DHT22;9863;49.404;8.246;2023-03-13T00:01:22;10.90;99.90
19449;DHT22;9863;49.404;8.246;2023-03-13T00:03:51;11.00;99.90
19449;DHT22;9863;49.404;8.246;2023-03-13T00:06:30;11.00;99.90
19449;DHT22;9863;49.404;8.246;2023-03-13T00:09:06;11.10;99.90
19449;DHT22;9863;49.404;8.246;2023-03-13T00:11:34;11.10;99.90
19449;DHT22;9863;49.404;8.246;2023-03-13T00:14:03;11.10;99.90
19449;DHT22;9863;49.404;8.246;2023-03-13T00:16:31;11.10;99.90
19449;DHT22;9863;49.404;8.246;2023-03-13T00:19:00;11.10;99.90
19449;DHT22;9863;49.404;8.246;2023-03-13T00:21:28;11.10;99.90
19449;DHT22;9863;49.404;8.246;2023-03-13T00:23:57;11.10;99.90
19449;DHT22;9863;49.404;8.246;2023-03-13T00:26:26;11.30;99.90
19449;DHT22;9863;49.404;8.246;2023-03-13T00:28:54;11.30;99.90
19449;DHT22;9863;49.404;8.246;2023-03-13T00:31:27;11.20;99.90
19449;DHT22;9863;49.404;8.246;2023-03-13T00:34:00;11.20;99.90
19449;DHT22;9863;49.404;8.246;2023-03-13T00:36:33;11.30;99.90
19449;DHT22;9863;49.404;8.246;2023-03-13T00:39:02;11.30;99.90
19449;DHT22;9863;49.404;8.246;2023-03-13T00:41:32;11.30;99.90
19449;DHT22;9863;49.404;8.246;2023-03-13T00:43:59;11.30;99.90
19449;DHT22;9863;49.404;8.246;2023-03-13T00:46:28;11.40;99.90
19449;DHT22;9863;49.404;8.246;2023-03-13T00:48:56;11.40;99.90
19449;DHT22;9863;49.404;8.246;2023-03-13T00:51:24;11.30;99.90
19449;DHT22;9863;49.404;8.246;2023-03-13T00:53:54;11.30;99.90
19449;DHT22;9863;49.404;8.246;2023-03-13T00:56:22;11.40;99.90
19449;DHT22;9863;49.404;8.246;2023-03-13T00:58:50;11.40;99.90
19449;DHT22;9863;49.404;8.246;2023-03-13T01:01:23;11.30;99.90
19449;DHT22;9863;49.404;8.246;2023-03-13T01:04:02;11.40;99.90
19449;DHT22;9863;49.404;8.246;2023-03-13T01:06:33;11.40;99.90
19449;DHT22;9863;49.404;8.246;2023-03-13T01:09:03;11.30;99.90
19449;DHT22;9863;49.404;8.246;2023-03-13T01:11:34;11.20;99.90
19449;DHT22;9863;49.404;8.246;2023-03-13T01:14:04;11.10;99.90
19449;DHT22;9863;49.404;8.246;2023-03-13T01:16:34;11.10;99.90
19449;DHT22;9863;49.404;8.246;2023-03-13T01:19:11;11.10;99.90
19449;DHT22;9863;49.404;8.246;2023-03-13T01:21:41;11.20;99.90
19449;DHT22;9863;49.404;8.246;2023-03-13T01:24:09;11.20;99.90
19449;DHT22;9863;49.404;8.246;2023-03-13T01:26:36;11.20;99.90
19449;DHT22;9863;49.404;8.246;2023-03-13T01:29:04;11.20;99.90
19449;DHT22;9863;49.404;8.246;2023-03-13T01:31:33;11.20;99.90
19449;DHT22;9863;49.404;8.246;2023-03-13T01:34:04;11.00;99.90
19449;DHT22;9863;49.404;8.246;2023-03-13T01:36:33;11.00;99.90
19449;DHT22;9863;49.404;8.246;2023-03-13T01:39:02;11.00;99.90
19449;DHT22;9863;49.404;8.246;2023-03-13T01:41:30;11.00;99.90
19449;DHT22;9863;49.404;8.246;2023-03-13T01:43:57;10.90;99.90
19449;DHT22;9863;49.404;8.246;2023-03-13T01:46:27;10.80;99.90
19449;DHT22;9863;49.404;8.246;2023-03-13T01:49:06;10.70;99.90
19449;DHT22;9863;49.404;8.246;2023-03-13T01:52:01;10.60;99.90
19449;DHT22;9863;49.404;8.246;2023-03-13T01:54:36;10.70;99.90
19449;DHT22;9863;49.404;8.246;2023-03-13T02:00:01;10.60;99.90
19449;DHT22;9863;49.404;8.246;2023-03-13T02:02:34;10.50;99.90
19449;DHT22;9863;49.404;8.246;2023-03-13T02:05:04;10.60;99.90
19449;DHT22;9863;49.404;8.246;2023-03-13T02:10:47;10.50;99.90
19449;DHT22;9863;49.404;8.246;2023-03-13T02:13:17;10.40;99.90
19449;DHT22;9863;49.404;8.246;2023-03-13T02:15:46;10.40;99.90
19449;DHT22;9863;49.404;8.246;2023-03-13T02:18:14;10.40;99.90
19449;DHT22;9863;49.404;8.246;2023-03-13T02:20:42;10.40;99.90
19449;DHT22;9863;49.404;8.246;2023-03-13T02:25:50;10.40;99.90
19449;DHT22;9863;49.404;8.246;2023-03-13T02:28:24;10.40;99.90
19449;DHT22;9863;49.404;8.246;2023-03-13T02:30:55;10.40;99.90
19449;DHT22;9863;49.404;8.246;2023-03-13T02:33:33;10.40;99.90
19449;DHT22;9863;49.404;8.246;2023-03-13T02:36:04;10.30;99.90
19449;DHT22;9863;49.404;8.246;2023-03-13T02:38:34;10.30;99.90
19449;DHT22;9863;49.404;8.246;2023-03-13T02:41:05;10.30;99.90
19449;DHT22;9863;49.404;8.246;2023-03-13T02:43:35;10.20;99.90
19449;DHT22;9863;49.404;8.246;2023-03-13T02:46:14;10.20;99.90
19449;DHT22;9863;49.404;8.246;2023-03-13T02:48:46;10.20;99.90
19449;DHT22;9863;49.404;8.246;2023-03-13T02:51:31;10.20;99.90
19449;DHT22;9863;49.404;8.246;2023-03-13T02:54:13;10.20;99.90
19449;DHT22;9863;49.404;8.246;2023-03-13T02:56:45;10.20;99.90
19449;DHT22;9863;49.404;8.246;2023-03-13T02:59:15;10.20;99.90
19449;DHT22;9863;49.404;8.246;2023-03-13T03:01:42;10.30;99.90
19449;DHT22;9863;49.404;8.246;2023-03-13T03:04:09;10.20;99.90
19449;DHT22;9863;49.404;8.246;2023-03-13T03:06:36;10.10;99.90
19449;DHT22;9863;49.404;8.246;2023-03-13T03:09:03;10.10;99.90
19449;DHT22;9863;49.404;8.246;2023-03-13T03:11:30;9.90;99.90
19449;DHT22;9863;49.404;8.246;2023-03-13T03:13:57;9.90;99.90
19449;DHT22;9863;49.404;8.246;2023-03-13T03:16:24;9.70;99.90
19449;DHT22;9863;49.404;8.246;2023-03-13T03:18:51;9.70;99.90
19449;DHT22;9863;49.404;8.246;2023-03-13T03:21:18;9.50;99.90
19449;DHT22;9863;49.404;8.246;2023-03-13T03:23:46;9.50;99.90
19449;DHT22;9863;49.404;8.246;2023-03-13T03:26:14;9.40;99.90
19449;DHT22;9863;49.404;8.246;2023-03-13T03:28:41;9.40;99.90
19449;DHT22;9863;49.404;8.246;2023-03-13T03:31:11;9.30;99.90
19449;DHT22;9863;49.404;8.246;2023-03-13T03:33:39;9.30;99.90
19449;DHT22;9863;49.404;8.246;2023-03-13T03:36:09;9.30;99.90
19449;DHT22;9863;49.404;8.246;2023-03-13T03:38:40;9.20;99.90
19449;DHT22;9863;49.404;8.246;2023-03-13T03:41:08;9.20;99.90
19449;DHT22;9863;49.404;8.246;2023-03-13T03:43:36;9.20;99.90
19449;DHT22;9863;49.404;8.246;2023-03-13T03:46:03;9.20;99.90
19449;DHT22;9863;49.404;8.246;2023-03-13T03:48:31;9.10;99.90
19449;DHT22;9863;49.404;8.246;2023-03-13T03:50:58;9.10;99.90
19449;DHT22;9863;49.404;8.246;2023-03-13T03:53:25;9.10;99.90
19449;DHT22;9863;49.404;8.246;2023-03-13T03:55:53;9.10;99.90
19449;DHT22;9863;49.404;8.246;2023-03-13T03:58:21;9.10;99.90
19449;DHT22;9863;49.404;8.246;2023-03-13T04:00:48;9.10;99.90
19449;DHT22;9863;49.404;8.246;2023-03-13T04:03:15;9.10;99.90
19449;DHT22;9863;49.404;8.246;2023-03-13T04:05:43;7.00;99.90
19449;DHT22;9863;49.404;8.246;2023-03-13T04:08:10;9.10;99.90
19449;DHT22;9863;49.404;8.246;2023-03-13T04:10:37;9.10;99.90
19449;DHT22;9863;49.404;8.246;2023-03-13T04:13:04;9.10;99.90
19449;DHT22;9863;49.404;8.246;2023-03-13T04:15:31;9.10;99.90
19449;DHT22;9863;49.404;8.246;2023-03-13T04:17:58;9.10;99.90
19449;DHT22;9863;49.404;8.246;2023-03-13T04:20:25;9.20;99.90
19449;DHT22;9863;49.404;8.246;2023-03-13T04:22:54;9.20;99.90
19449;DHT22;9863;49.404;8.246;2023-03-13T04:25:21;9.20;99.90
19449;DHT22;9863;49.404;8.246;2023-03-13T04:27:48;9.20;99.90
19449;DHT22;9863;49.404;8.246;2023-03-13T04:30:16;9.30;99.90
19449;DHT22;9863;49.404;8.246;2023-03-13T04:32:44;9.30;99.90
19449;DHT22;9863;49.404;8.246;2023-03-13T04:35:11;9.30;99.90
19449;DHT22;9863;49.404;8.246;2023-03-13T04:37:38;9.40;99.90
19449;DHT22;9863;49.404;8.246;2023-03-13T04:40:06;9.50;99.90
19449;DHT22;9863;49.404;8.246;2023-03-13T04:42:33;9.60;99.90
19449;DHT22;9863;49.404;8.246;2023-03-13T04:45:00;9.60;99.90
19449;DHT22;9863;49.404;8.246;2023-03-13T04:47:27;9.80;99.90
19449;DHT22;9863;49.404;8.246;2023-03-13T04:49:54;9.90;99.90
19449;DHT22;9863;49.404;8.246;2023-03-13T04:52:21;10.00;99.90
19449;DHT22;9863;49.404;8.246;2023-03-13T04:54:48;10.10;99.90
19449;DHT22;9863;49.404;8.246;2023-03-13T04:57:16;10.20;99.90
19449;DHT22;9863;49.404;8.246;2023-03-13T04:59:44;10.30;99.90
19449;DHT22;9863;49.404;8.246;2023-03-13T05:02:12;10.30;99.90
19449;DHT22;9863;49.404;8.246;2023-03-13T05:04:39;10.40;99.90
19449;DHT22;9863;49.404;8.246;2023-03-13T05:07:06;10.40;99.90
19449;DHT22;9863;49.404;8.246;2023-03-13T05:09:33;10.40;99.90
19449;DHT22;9863;49.404;8.246;2023-03-13T05:12:01;10.50;99.90
19449;DHT22;9863;49.404;8.246;2023-03-13T05:14:33;10.60;99.90
19449;DHT22;9863;49.404;8.246;2023-03-13T05:17:00;10.70;99.90
19449;DHT22;9863;49.404;8.246;2023-03-13T05:19:27;10.80;99.90
19449;DHT22;9863;49.404;8.246;2023-03-13T05:21:54;10.80;99.90
19449;DHT22;9863;49.404;8.246;2023-03-13T05:24:22;10.70;99.90
19449;DHT22;9863;49.404;8.246;2023-03-13T05:26:48;10.80;99.90
19449;DHT22;9863;49.404;8.246;2023-03-13T05:29:15;10.80;99.90
19449;DHT22;9863;49.404;8.246;2023-03-13T05:31:42;10.80;99.90
19449;DHT22;9863;49.404;8.246;2023-03-13T05:34:09;10.80;99.90
19449;DHT22;9863;49.404;8.246;2023-03-13T05:36:37;10.90;99.90
19449;DHT22;9863;49.404;8.246;2023-03-13T05:39:04;10.90;99.90
19449;DHT22;9863;49.404;8.246;2023-03-13T05:41:31;10.90;99.90
19449;DHT22;9863;49.404;8.246;2023-03-13T05:43:58;11.00;99.90
19449;DHT22;9863;49.404;8.246;2023-03-13T05:46:25;11.00;99.90
19449;DHT22;9863;49.404;8.246;2023-03-13T05:48:52;11.00;99.90
19449;DHT22;9863;49.404;8.246;2023-03-13T05:51:19;11.00;99.90
19449;DHT22;9863;49.404;8.246;2023-03-13T05:53:46;11.00;99.90
19449;DHT22;9863;49.404;8.246;2023-03-13T05:56:13;11.00;99.90
19449;DHT22;9863;49.404;8.246;2023-03-13T05:58:40;11.00;99.90
19449;DHT22;9863;49.404;8.246;2023-03-13T06:01:09;11.10;99.90
19449;DHT22;9863;49.404;8.246;2023-03-13T06:03:37;11.20;99.90
19449;DHT22;9863;49.404;8.246;2023-03-13T06:06:05;11.30;99.90
19449;DHT22;9863;49.404;8.246;2023-03-13T06:08:32;11.30;99.90
19449;DHT22;9863;49.404;8.246;2023-03-13T06:11:00;11.40;99.90
19449;DHT22;9863;49.404;8.246;2023-03-13T06:13:28;11.30;99.90
19449;DHT22;9863;49.404;8.246;2023-03-13T06:15:57;11.30;99.90
19449;DHT22;9863;49.404;8.246;2023-03-13T06:18:25;11.40;99.90
19449;DHT22;9863;49.404;8.246;2023-03-13T06:20:57;11.30;99.90
19449;DHT22;9863;49.404;8.246;2023-03-13T06:23:26;11.40;99.90
19449;DHT22;9863;49.404;8.246;2023-03-13T06:25:54;11.40;99.90
19449;DHT22;9863;49.404;8.246;2023-03-13T06:28:21;11.40;99.90
19449;DHT22;9863;49.404;8.246;2023-03-13T06:30:48;11.50;99.90
19449;DHT22;9863;49.404;8.246;2023-03-13T06:33:15;11.50;99.90
19449;DHT22;9863;49.404;8.246;2023-03-13T06:35:43;11.50;99.90
19449;DHT22;9863;49.404;8.246;2023-03-13T06:38:25;11.50;99.90
19449;DHT22;9863;49.404;8.246;2023-03-13T06:40:52;11.50;99.90
19449;DHT22;9863;49.404;8.246;2023-03-13T06:43:20;11.50;99.90
19449;DHT22;9863;49.404;8.246;2023-03-13T06:45:47;11.60;99.90
19449;DHT22;9863;49.404;8.246;2023-03-13T06:48:15;11.60;99.90
19449;DHT22;9863;49.404;8.246;2023-03-13T06:50:42;11.70;99.90
19449;DHT22;9863;49.404;8.246;2023-03-13T06:53:17;11.70;99.90
19449;DHT22;9863;49.404;8.246;2023-03-13T06:55:45;11.70;99.90
19449;DHT22;9863;49.404;8.246;2023-03-13T06:58:13;11.70;99.90
19449;DHT22;9863;49.404;8.246;2023-03-13T07:01:07;11.80;99.90
19449;DHT22;9863;49.404;8.246;2023-03-13T07:03:37;11.80;99.90
19449;DHT22;9863;49.404;8.246;2023-03-13T07:06:04;11.90;99.90
19449;DHT22;9863;49.404;8.246;2023-03-13T07:08:32;11.90;99.90
19449;DHT22;9863;49.404;8.246;2023-03-13T07:11:05;11.80;99.90
19449;DHT22;9863;49.404;8.246;2023-03-13T07:13:34;11.90;99.90
19449;DHT22;9863;49.404;8.246;2023-03-13T07:16:02;11.90;99.90
19449;DHT22;9863;49.404;8.246;2023-03-13T07:18:31;12.00;99.90
19449;DHT22;9863;49.404;8.246;2023-03-13T07:21:00;12.10;99.90
19449;DHT22;9863;49.404;8.246;2023-03-13T07:23:31;12.20;99.90
19449;DHT22;9863;49.404;8.246;2023-03-13T07:26:04;12.40;99.90
19449;DHT22;9863;49.404;8.246;2023-03-13T07:28:33;12.40;99.90
19449;DHT22;9863;49.404;8.246;2023-03-13T07:31:14;12.20;99.90
19449;DHT22;9863;49.404;8.246;2023-03-13T07:33:43;12.10;99.90
19449;DHT22;9863;49.404;8.246;2023-03-13T07:36:13;12.10;99.90
19449;DHT22;9863;49.404;8.246;2023-03-13T07:38:40;12.10;99.90
19449;DHT22;9863;49.404;8.246;2023-03-13T07:41:11;12.20;99.90
19449;DHT22;9863;49.404;8.246;2023-03-13T07:43:41;12.20;99.90
19449;DHT22;9863;49.404;8.246;2023-03-13T07:46:14;12.20;99.90
19449;DHT22;9863;49.404;8.246;2023-03-13T07:48:45;12.30;99.90
19449;DHT22;9863;49.404;8.246;2023-03-13T07:51:18;12.30;99.90
19449;DHT22;9863;49.404;8.246;2023-03-13T07:54:02;12.50;99.90
19449;DHT22;9863;49.404;8.246;2023-03-13T07:56:29;12.70;99.90
19449;DHT22;9863;49.404;8.246;2023-03-13T07:58:56;12.80;99.90
19449;DHT22;9863;49.404;8.246;2023-03-13T08:01:25;12.80;99.90
19449;DHT22;9863;49.404;8.246;2023-03-13T08:03:56;12.80;99.90
19449;DHT22;9863;49.404;8.246;2023-03-13T08:06:25;13.00;99.90
19449;DHT22;9863;49.404;8.246;2023-03-13T08:08:56;13.00;99.90
19449;DHT22;9863;49.404;8.246;2023-03-13T08:11:25;13.00;99.90
19449;DHT22;9863;49.404;8.246;2023-03-13T08:13:54;13.00;99.90
19449;DHT22;9863;49.404;8.246;2023-03-13T08:16:24;13.00;99.90
19449;DHT22;9863;49.404;8.246;2023-03-13T08:18:55;13.00;99.90
19449;DHT22;9863;49.404;8.246;2023-03-13T08:21:28;13.00;99.90
19449;DHT22;9863;49.404;8.246;2023-03-13T08:24:01;13.00;99.90
19449;DHT22;9863;49.404;8.246;2023-03-13T08:26:33;12.90;99.90
19449;DHT22;9863;49.404;8.246;2023-03-13T08:29:05;12.80;99.90
19449;DHT22;9863;49.404;8.246;2023-03-13T08:31:43;12.80;99.90
19449;DHT22;9863;49.404;8.246;2023-03-13T08:34:12;12.90;99.90
19449;DHT22;9863;49.404;8.246;2023-03-13T08:36:40;12.90;99.90
19449;DHT22;9863;49.404;8.246;2023-03-13T08:39:12;13.00;99.90
19449;DHT22;9863;49.404;8.246;2023-03-13T08:41:43;13.00;99.90
19449;DHT22;9863;49.404;8.246;2023-03-13T08:44:11;12.90;99.90
19449;DHT22;9863;49.404;8.246;2023-03-13T08:46:40;13.00;99.90
19449;DHT22;9863;49.404;8.246;2023-03-13T08:49:07;12.90;99.90
19449;DHT22;9863;49.404;8.246;2023-03-13T08:51:35;12.90;99.90
19449;DHT22;9863;49.404;8.246;2023-03-13T08:54:03;12.90;99.90
19449;DHT22;9863;49.404;8.246;2023-03-13T08:56:31;12.90;99.90
19449;DHT22;9863;49.404;8.246;2023-03-13T08:59:00;12.90;99.90
19449;DHT22;9863;49.404;8.246;2023-03-13T09:01:30;12.90;99.90
19449;DHT22;9863;49.404;8.246;2023-03-13T09:03:59;13.10;99.90
19449;DHT22;9863;49.404;8.246;2023-03-13T09:06:31;13.00;99.90
19449;DHT22;9863;49.404;8.246;2023-03-13T09:08:59;13.00;99.90
19449;DHT22;9863;49.404;8.246;2023-03-13T09:11:27;13.00;99.90
19449;DHT22;9863;49.404;8.246;2023-03-13T09:13:54;13.00;99.90
19449;DHT22;9863;49.404;8.246;2023-03-13T09:16:27;13.00;99.90
19449;DHT22;9863;49.404;8.246;2023-03-13T09:18:56;12.90;99.90
19449;DHT22;9863;49.404;8.246;2023-03-13T09:21:25;12.90;99.90
19449;DHT22;9863;49.404;8.246;2023-03-13T09:23:55;12.90;99.90
19449;DHT22;9863;49.404;8.246;2023-03-13T09:26:23;12.90;99.90
19449;DHT22;9863;49.404;8.246;2023-03-13T09:28:51;12.90;99.90
19449;DHT22;9863;49.404;8.246;2023-03-13T09:33:53;12.90;99.90
19449;DHT22;9863;49.404;8.246;2023-03-13T09:36:21;12.90;99.90
19449;DHT22;9863;49.404;8.246;2023-03-13T09:38:51;13.00;99.90
19449;DHT22;9863;49.404;8.246;2023-03-13T09:41:35;13.10;99.90
19449;DHT22;9863;49.404;8.246;2023-03-13T09:44:20;13.10;99.90
19449;DHT22;9863;49.404;8.246;2023-03-13T09:46:58;13.10;99.90
19449;DHT22;9863;49.404;8.246;2023-03-13T09:49:41;13.20;99.90
19449;DHT22;9863;49.404;8.246;2023-03-13T09:52:25;13.20;99.90
19449;DHT22;9863;49.404;8.246;2023-03-13T09:55:21;13.30;99.90
19449;DHT22;9863;49.404;8.246;2023-03-13T09:58:25;13.30;99.90
19449;DHT22;9863;49.404;8.246;2023-03-13T10:01:01;13.40;99.90
19449;DHT22;9863;49.404;8.246;2023-03-13T10:06:19;13.80;99.90
19449;DHT22;9863;49.404;8.246;2023-03-13T10:08:46;13.80;99.90
19449;DHT22;9863;49.404;8.246;2023-03-13T10:11:27;13.80;99.90
19449;DHT22;9863;49.404;8.246;2023-03-13T10:17:00;13.90;99.90
19449;DHT22;9863;49.404;8.246;2023-03-13T10:19:39;13.90;99.90
19449;DHT22;9863;49.404;8.246;2023-03-13T10:22:19;13.90;99.90
19449;DHT22;9863;49.404;8.246;2023-03-13T10:24:58;13.90;99.90
19449;DHT22;9863;49.404;8.246;2023-03-13T10:27:26;14.00;99.90
19449;DHT22;9863;49.404;8.246;2023-03-13T10:29:53;14.00;99.90
19449;DHT22;9863;49.404;8.246;2023-03-13T10:32:20;14.10;99.90
19449;DHT22;9863;49.404;8.246;2023-03-13T10:34:56;14.20;99.90
19449;DHT22;9863;49.404;8.246;2023-03-13T10:37:30;14.60;99.90
19449;DHT22;9863;49.404;8.246;2023-03-13T10:40:19;14.60;99.90
19449;DHT22;9863;49.404;8.246;2023-03-13T10:42:53;14.70;99.90
19449;DHT22;9863;49.404;8.246;2023-03-13T10:45:26;14.80;99.90
19449;DHT22;9863;49.404;8.246;2023-03-13T10:48:02;14.90;99.90
19449;DHT22;9863;49.404;8.246;2023-03-13T10:55:59;15.50;99.90
19449;DHT22;9863;49.404;8.246;2023-03-13T10:58:42;15.90;99.90
19449;DHT22;9863;49.404;8.246;2023-03-13T11:01:17;15.90;99.90
19449;DHT22;9863;49.404;8.246;2023-03-13T11:03:50;16.00;99.90
19449;DHT22;9863;49.404;8.246;2023-03-13T11:06:30;16.30;99.90
19449;DHT22;9863;49.404;8.246;2023-03-13T11:09:18;16.40;99.90
19449;DHT22;9863;49.404;8.246;2023-03-13T11:14:21;16.50;99.90
19449;DHT22;9863;49.404;8.246;2023-03-13T11:20:21;16.30;99.90
19449;DHT22;9863;49.404;8.246;2023-03-13T11:28:38;16.50;99.90
19449;DHT22;9863;49.404;8.246;2023-03-13T11:34:22;16.90;99.90
19449;DHT22;9863;49.404;8.246;2023-03-13T11:39:54;16.80;99.90
19449;DHT22;9863;49.404;8.246;2023-03-13T11:56:58;18.10;99.90
19449;DHT22;9863;49.404;8.246;2023-03-13T12:02:30;18.70;99.90
19449;DHT22;9863;49.404;8.246;2023-03-13T12:05:02;19.10;99.90
19449;DHT22;9863;49.404;8.246;2023-03-13T12:07:40;18.70;99.90
19449;DHT22;9863;49.404;8.246;2023-03-13T12:10:36;18.60;99.90
19449;DHT22;9863;49.404;8.246;2023-03-13T12:13:34;18.90;99.90
19449;DHT22;9863;49.404;8.246;2023-03-13T12:16:15;18.70;99.90
19449;DHT22;9863;49.404;8.246;2023-03-13T12:18:46;18.80;99.90
19449;DHT22;9863;49.404;8.246;2023-03-13T12:26:44;18.50;99.90
19449;DHT22;9863;49.404;8.246;2023-03-13T12:29:52;18.50;99.90
19449;DHT22;9863;49.404;8.246;2023-03-13T12:35:07;18.60;99.90
19449;DHT22;9863;49.404;8.246;2023-03-13T12:37:52;18.50;99.90
19449;DHT22;9863;49.404;8.246;2023-03-13T12:43:37;18.30;99.90
19449;DHT22;9863;49.404;8.246;2023-03-13T12:52:16;18.50;99.90
19449;DHT22;9863;49.404;8.246;2023-03-13T12:55:18;18.40;99.90
19449;DHT22;9863;49.404;8.246;2023-03-13T13:01:06;18.70;99.90
19449;DHT22;9863;49.404;8.246;2023-03-13T13:04:21;18.70;99.90
19449;DHT22;9863;49.404;8.246;2023-03-13T13:07:00;18.50;99.90
19449;DHT22;9863;49.404;8.246;2023-03-13T13:09:31;18.70;99.90
19449;DHT22;9863;49.404;8.246;2023-03-13T13:17:39;18.90;99.90
19449;DHT22;9863;49.404;8.246;2023-03-13T13:23:26;19.00;99.90
19449;DHT22;9863;49.404;8.246;2023-03-13T13:31:54;19.10;99.90
19449;DHT22;9863;49.404;8.246;2023-03-13T13:37:02;19.20;99.90
19449;DHT22;9863;49.404;8.246;2023-03-13T13:47:44;19.70;99.90
19449;DHT22;9863;49.404;8.246;2023-03-13T13:50:22;19.60;99.90
19449;DHT22;9863;49.404;8.246;2023-03-13T13:55:40;19.70;99.90
19449;DHT22;9863;49.404;8.246;2023-03-13T13:58:19;19.50;99.90
19449;DHT22;9863;49.404;8.246;2023-03-13T14:00:52;19.50;99.90
19449;DHT22;9863;49.404;8.246;2023-03-13T14:03:26;20.00;99.90
19449;DHT22;9863;49.404;8.246;2023-03-13T14:05:59;20.30;99.90
19449;DHT22;9863;49.404;8.246;2023-03-13T14:08:36;20.10;99.90
19449;DHT22;9863;49.404;8.246;2023-03-13T14:16:23;20.70;99.90
19449;DHT22;9863;49.404;8.246;2023-03-13T14:21:23;20.20;99.90
19449;DHT22;9863;49.404;8.246;2023-03-13T14:26:22;20.30;99.90
19449;DHT22;9863;49.404;8.246;2023-03-13T14:31:37;20.70;99.90
19449;DHT22;9863;49.404;8.246;2023-03-13T14:34:07;20.80;99.90
19449;DHT22;9863;49.404;8.246;2023-03-13T14:36:49;20.80;99.90
19449;DHT22;9863;49.404;8.246;2023-03-13T14:44:39;20.80;99.90
19449;DHT22;9863;49.404;8.246;2023-03-13T14:47:33;20.80;99.90
19449;DHT22;9863;49.404;8.246;2023-03-13T14:50:03;20.90;99.90
19449;DHT22;9863;49.404;8.246;2023-03-13T14:58:04;21.00;99.90
19449;DHT22;9863;49.404;8.246;2023-03-13T15:00:47;21.20;99.90
19449;DHT22;9863;49.404;8.246;2023-03-13T15:08:31;21.10;99.90
19449;DHT22;9863;49.404;8.246;2023-03-13T15:10:59;21.20;99.90
19449;DHT22;9863;49.404;8.246;2023-03-13T15:16:04;21.10;99.90
19449;DHT22;9863;49.404;8.246;2023-03-13T15:18:47;21.20;99.90
19449;DHT22;9863;49.404;8.246;2023-03-13T15:23:52;21.20;99.90
19449;DHT22;9863;49.404;8.246;2023-03-13T15:26:21;21.30;99.90
19449;DHT22;9863;49.404;8.246;2023-03-13T15:28:50;21.30;99.90
19449;DHT22;9863;49.404;8.246;2023-03-13T15:31:19;21.30;99.90
19449;DHT22;9863;49.404;8.246;2023-03-13T15:33:57;21.20;99.90
19449;DHT22;9863;49.404;8.246;2023-03-13T15:36:26;20.80;99.90
19449;DHT22;9863;49.404;8.246;2023-03-13T15:38:54;20.60;99.90
19449;DHT22;9863;49.404;8.246;2023-03-13T15:41:22;20.50;99.90
19449;DHT22;9863;49.404;8.246;2023-03-13T15:43:50;20.30;99.90
19449;DHT22;9863;49.404;8.246;2023-03-13T15:46:24;20.10;99.90
19449;DHT22;9863;49.404;8.246;2023-03-13T15:48:52;20.10;99.90
19449;DHT22;9863;49.404;8.246;2023-03-13T15:51:19;20.00;99.90
19449;DHT22;9863;49.404;8.246;2023-03-13T15:53:46;19.90;99.90
19449;DHT22;9863;49.404;8.246;2023-03-13T15:56:19;18.30;99.90
19449;DHT22;9863;49.404;8.246;2023-03-13T15:58:49;17.60;99.90
19449;DHT22;9863;49.404;8.246;2023-03-13T16:01:17;17.40;99.90
19449;DHT22;9863;49.404;8.246;2023-03-13T16:06:15;17.10;99.90
19449;DHT22;9863;49.404;8.246;2023-03-13T16:11:14;16.80;99.90
19449;DHT22;9863;49.404;8.246;2023-03-13T16:13:42;16.70;99.90
19449;DHT22;9863;49.404;8.246;2023-03-13T16:21:24;16.40;99.90
19449;DHT22;9863;49.404;8.246;2023-03-13T16:23:53;16.20;99.90
19449;DHT22;9863;49.404;8.246;2023-03-13T16:26:23;16.10;99.90
19449;DHT22;9863;49.404;8.246;2023-03-13T16:28:52;15.90;99.90
19449;DHT22;9863;49.404;8.246;2023-03-13T16:33:50;14.80;99.90
19449;DHT22;9863;49.404;8.246;2023-03-13T16:36:29;14.60;99.90
19449;DHT22;9863;49.404;8.246;2023-03-13T16:39:14;14.30;99.90
19449;DHT22;9863;49.404;8.246;2023-03-13T16:51:57;13.80;99.90
19449;DHT22;9863;49.404;8.246;2023-03-13T16:54:24;13.80;99.90
19449;DHT22;9863;49.404;8.246;2023-03-13T16:56:51;13.70;99.90
19449;DHT22;9863;49.404;8.246;2023-03-13T17:06:42;13.30;99.90
19449;DHT22;9863;49.404;8.246;2023-03-13T17:09:16;13.30;99.90
19449;DHT22;9863;49.404;8.246;2023-03-13T17:16:42;13.50;99.90
19449;DHT22;9863;49.404;8.246;2023-03-13T17:19:13;13.40;99.90
19449;DHT22;9863;49.404;8.246;2023-03-13T17:26:38;13.60;99.90
19449;DHT22;9863;49.404;8.246;2023-03-13T17:29:06;13.60;99.90
19449;DHT22;9863;49.404;8.246;2023-03-13T17:31:34;13.50;99.90
19449;DHT22;9863;49.404;8.246;2023-03-13T17:34:07;13.40;99.90
19449;DHT22;9863;49.404;8.246;2023-03-13T17:39:04;13.40;99.90
19449;DHT22;9863;49.404;8.246;2023-03-13T17:41:34;13.30;99.90
19449;DHT22;9863;49.404;8.246;2023-03-13T17:44:03;13.20;99.90
19449;DHT22;9863;49.404;8.246;2023-03-13T17:46:34;13.30;99.90
19449;DHT22;9863;49.404;8.246;2023-03-13T17:51:34;13.30;99.90
19449;DHT22;9863;49.404;8.246;2023-03-13T17:56:31;13.30;99.90
19449;DHT22;9863;49.404;8.246;2023-03-13T17:59:04;13.20;99.90
19449;DHT22;9863;49.404;8.246;2023-03-13T18:04:10;13.20;99.90
19449;DHT22;9863;49.404;8.246;2023-03-13T18:09:13;13.10;99.90
19449;DHT22;9863;49.404;8.246;2023-03-13T18:16:42;13.00;99.90
19449;DHT22;9863;49.404;8.246;2023-03-13T18:21:51;13.10;99.90
19449;DHT22;9863;49.404;8.246;2023-03-13T18:26:48;13.10;99.90
19449;DHT22;9863;49.404;8.246;2023-03-13T18:29:23;13.10;99.90
19449;DHT22;9863;49.404;8.246;2023-03-13T18:31:57;13.00;99.90
19449;DHT22;9863;49.404;8.246;2023-03-13T18:34:26;13.00;99.90
19449;DHT22;9863;49.404;8.246;2023-03-13T18:36:54;13.00;99.90
19449;DHT22;9863;49.404;8.246;2023-03-13T18:49:20;13.30;99.90
19449;DHT22;9863;49.404;8.246;2023-03-13T18:51:50;13.20;99.90
19449;DHT22;9863;49.404;8.246;2023-03-13T18:54:19;13.30;99.90
19449;DHT22;9863;49.404;8.246;2023-03-13T18:59:19;13.20;99.90
19449;DHT22;9863;49.404;8.246;2023-03-13T19:01:47;13.10;99.90
19449;DHT22;9863;49.404;8.246;2023-03-13T19:06:44;12.80;99.90
19449;DHT22;9863;49.404;8.246;2023-03-13T19:09:14;12.60;99.90
19449;DHT22;9863;49.404;8.246;2023-03-13T19:12:03;12.50;99.90
19449;DHT22;9863;49.404;8.246;2023-03-13T19:24:22;12.00;99.90
19449;DHT22;9863;49.404;8.246;2023-03-13T19:26:54;11.90;99.90
19449;DHT22;9863;49.404;8.246;2023-03-13T19:29:26;10.50;99.90
19449;DHT22;9863;49.404;8.246;2023-03-13T19:31:54;12.00;99.90
19449;DHT22;9863;49.404;8.246;2023-03-13T19:39:24;11.60;99.90
19449;DHT22;9863;49.404;8.246;2023-03-13T19:41:52;11.60;99.90
19449;DHT22;9863;49.404;8.246;2023-03-13T19:44:20;11.60;99.90
19449;DHT22;9863;49.404;8.246;2023-03-13T19:46:47;11.60;99.90
19449;DHT22;9863;49.404;8.246;2023-03-13T19:49:17;11.80;99.90
19449;DHT22;9863;49.404;8.246;2023-03-13T19:51:45;11.70;99.90
19449;DHT22;9863;49.404;8.246;2023-03-13T19:54:13;11.50;99.90
19449;DHT22;9863;49.404;8.246;2023-03-13T19:56:46;11.40;99.90
19449;DHT22;9863;49.404;8.246;2023-03-13T19:59:19;11.30;99.90
19449;DHT22;9863;49.404;8.246;2023-03-13T20:04:15;11.20;99.90
19449;DHT22;9863;49.404;8.246;2023-03-13T20:09:21;11.00;99.90
19449;DHT22;9863;49.404;8.246;2023-03-13T20:19:14;10.90;99.90